Parkview, Ohio
Current Conditions -  °F | °C
As of 5:51 AM on Monday 22 Dec 2014 (Local Time) from KCLE Reporting Station
Broken Clouds Broken Clouds  
Wind Chill: 25°   Ceiling: 25000
Heat Index: 25°   Visibility: 8mi
Dew Point: 21°   Wind: 3mph
Humidity: 85%   Direction: 150°SSE
Pressure: 30.14"   Gusts: NA
Location:  41.4423°N, 81.8531°W
Report Text: KCLE 221051Z 15003KT 8SM BKN250 M04/M06 A3014 RMK AO2 SLP215 T10391061 $
Loading
Personal Weather Stations






























Interactive Weather Map New forecast layout! Learn more

10-Day Weather Forecast

Advertisements
Track Severe Weather on mobile